sensor_id;sensor_type;location;lat;lon;timestamp;P1;durP1;ratioP1;P2;durP2;ratioP2
38053;SDS011;23859;50.672;7.164;2023-05-29T00:01:20;9.55;;;4.10;;
38053;SDS011;23859;50.672;7.164;2023-05-29T00:03:49;8.20;;;4.18;;
38053;SDS011;23859;50.672;7.164;2023-05-29T00:06:16;8.57;;;3.83;;
38053;SDS011;23859;50.672;7.164;2023-05-29T00:08:43;11.35;;;4.40;;
38053;SDS011;23859;50.672;7.164;2023-05-29T00:11:09;9.18;;;4.15;;
38053;SDS011;23859;50.672;7.164;2023-05-29T00:13:35;10.82;;;4.60;;
38053;SDS011;23859;50.672;7.164;2023-05-29T00:16:01;9.63;;;4.75;;
38053;SDS011;23859;50.672;7.164;2023-05-29T00:18:29;10.18;;;4.30;;
38053;SDS011;23859;50.672;7.164;2023-05-29T00:20:55;11.07;;;4.80;;
38053;SDS011;23859;50.672;7.164;2023-05-29T00:23:21;11.20;;;4.50;;
38053;SDS011;23859;50.672;7.164;2023-05-29T00:25:48;7.03;;;3.92;;
38053;SDS011;23859;50.672;7.164;2023-05-29T00:28:14;7.78;;;4.22;;
38053;SDS011;23859;50.672;7.164;2023-05-29T00:30:40;8.73;;;4.47;;
38053;SDS011;23859;50.672;7.164;2023-05-29T00:33:06;12.35;;;6.47;;
38053;SDS011;23859;50.672;7.164;2023-05-29T00:35:33;10.88;;;4.57;;
38053;SDS011;23859;50.672;7.164;2023-05-29T00:37:59;8.52;;;4.57;;
38053;SDS011;23859;50.672;7.164;2023-05-29T00:40:25;9.38;;;4.97;;
38053;SDS011;23859;50.672;7.164;2023-05-29T00:42:51;9.70;;;4.68;;
38053;SDS011;23859;50.672;7.164;2023-05-29T00:45:17;12.15;;;4.45;;
38053;SDS011;23859;50.672;7.164;2023-05-29T00:47:44;8.40;;;4.45;;
38053;SDS011;23859;50.672;7.164;2023-05-29T00:50:10;14.32;;;4.47;;
38053;SDS011;23859;50.672;7.164;2023-05-29T00:52:41;7.40;;;4.22;;
38053;SDS011;23859;50.672;7.164;2023-05-29T00:55:10;8.77;;;4.38;;
38053;SDS011;23859;50.672;7.164;2023-05-29T00:57:36;9.82;;;4.75;;
38053;SDS011;23859;50.672;7.164;2023-05-29T01:00:04;9.68;;;4.13;;
38053;SDS011;23859;50.672;7.164;2023-05-29T01:02:37;10.38;;;4.35;;
38053;SDS011;23859;50.672;7.164;2023-05-29T01:05:04;12.75;;;5.10;;
38053;SDS011;23859;50.672;7.164;2023-05-29T01:07:31;11.30;;;4.78;;
38053;SDS011;23859;50.672;7.164;2023-05-29T01:09:57;10.95;;;4.82;;
38053;SDS011;23859;50.672;7.164;2023-05-29T01:12:33;8.77;;;4.75;;
38053;SDS011;23859;50.672;7.164;2023-05-29T01:18:05;11.32;;;4.38;;
38053;SDS011;23859;50.672;7.164;2023-05-29T01:28:27;9.40;;;4.57;;
38053;SDS011;23859;50.672;7.164;2023-05-29T01:31:02;10.63;;;4.47;;
38053;SDS011;23859;50.672;7.164;2023-05-29T01:33:30;11.82;;;4.93;;
38053;SDS011;23859;50.672;7.164;2023-05-29T01:35:57;13.02;;;4.53;;
38053;SDS011;23859;50.672;7.164;2023-05-29T01:38:23;12.82;;;4.63;;
38053;SDS011;23859;50.672;7.164;2023-05-29T01:40:49;9.55;;;4.85;;
38053;SDS011;23859;50.672;7.164;2023-05-29T01:43:16;11.05;;;4.53;;
38053;SDS011;23859;50.672;7.164;2023-05-29T01:45:42;12.27;;;4.53;;
38053;SDS011;23859;50.672;7.164;2023-05-29T01:48:09;10.55;;;4.50;;
38053;SDS011;23859;50.672;7.164;2023-05-29T01:50:35;10.77;;;5.18;;
38053;SDS011;23859;50.672;7.164;2023-05-29T01:53:01;12.75;;;5.00;;
38053;SDS011;23859;50.672;7.164;2023-05-29T01:55:27;13.90;;;5.13;;
38053;SDS011;23859;50.672;7.164;2023-05-29T01:57:53;8.93;;;4.50;;
38053;SDS011;23859;50.672;7.164;2023-05-29T02:00:20;13.98;;;5.25;;
38053;SDS011;23859;50.672;7.164;2023-05-29T02:02:47;11.88;;;5.15;;
38053;SDS011;23859;50.672;7.164;2023-05-29T02:05:13;10.10;;;4.55;;
38053;SDS011;23859;50.672;7.164;2023-05-29T02:07:39;12.25;;;5.15;;
38053;SDS011;23859;50.672;7.164;2023-05-29T02:10:05;11.27;;;4.53;;
38053;SDS011;23859;50.672;7.164;2023-05-29T02:12:32;12.32;;;5.05;;
38053;SDS011;23859;50.672;7.164;2023-05-29T02:14:58;9.15;;;4.65;;
38053;SDS011;23859;50.672;7.164;2023-05-29T02:17:24;8.73;;;4.07;;
38053;SDS011;23859;50.672;7.164;2023-05-29T02:19:50;10.98;;;4.82;;
38053;SDS011;23859;50.672;7.164;2023-05-29T02:22:17;11.63;;;4.75;;
38053;SDS011;23859;50.672;7.164;2023-05-29T02:24:43;14.25;;;4.97;;
38053;SDS011;23859;50.672;7.164;2023-05-29T02:27:09;13.60;;;4.50;;
38053;SDS011;23859;50.672;7.164;2023-05-29T02:29:35;9.27;;;5.22;;
38053;SDS011;23859;50.672;7.164;2023-05-29T02:32:02;14.52;;;6.28;;
38053;SDS011;23859;50.672;7.164;2023-05-29T02:34:29;12.90;;;4.95;;
38053;SDS011;23859;50.672;7.164;2023-05-29T02:36:55;12.07;;;4.72;;
38053;SDS011;23859;50.672;7.164;2023-05-29T02:39:21;9.18;;;5.05;;
38053;SDS011;23859;50.672;7.164;2023-05-29T02:41:47;12.98;;;5.22;;
38053;SDS011;23859;50.672;7.164;2023-05-29T02:44:13;15.15;;;5.68;;
38053;SDS011;23859;50.672;7.164;2023-05-29T02:46:40;9.57;;;5.43;;
38053;SDS011;23859;50.672;7.164;2023-05-29T02:49:06;9.30;;;4.68;;
38053;SDS011;23859;50.672;7.164;2023-05-29T02:51:32;12.25;;;4.50;;
38053;SDS011;23859;50.672;7.164;2023-05-29T02:53:58;12.23;;;4.72;;
38053;SDS011;23859;50.672;7.164;2023-05-29T02:56:24;13.77;;;5.43;;
38053;SDS011;23859;50.672;7.164;2023-05-29T02:58:50;10.75;;;4.50;;
38053;SDS011;23859;50.672;7.164;2023-05-29T03:01:16;10.85;;;5.65;;
38053;SDS011;23859;50.672;7.164;2023-05-29T03:03:43;10.40;;;4.72;;
38053;SDS011;23859;50.672;7.164;2023-05-29T03:06:09;7.57;;;4.45;;
38053;SDS011;23859;50.672;7.164;2023-05-29T03:08:37;12.35;;;4.40;;
38053;SDS011;23859;50.672;7.164;2023-05-29T03:11:07;11.13;;;4.72;;
38053;SDS011;23859;50.672;7.164;2023-05-29T03:13:36;14.13;;;4.90;;
38053;SDS011;23859;50.672;7.164;2023-05-29T03:16:02;7.47;;;4.13;;
38053;SDS011;23859;50.672;7.164;2023-05-29T03:18:29;12.20;;;4.63;;
38053;SDS011;23859;50.672;7.164;2023-05-29T03:20:55;9.57;;;4.88;;
38053;SDS011;23859;50.672;7.164;2023-05-29T03:23:21;12.10;;;4.18;;
38053;SDS011;23859;50.672;7.164;2023-05-29T03:25:47;9.57;;;4.97;;
38053;SDS011;23859;50.672;7.164;2023-05-29T03:28:14;9.40;;;4.07;;
38053;SDS011;23859;50.672;7.164;2023-05-29T03:30:40;14.77;;;4.22;;
38053;SDS011;23859;50.672;7.164;2023-05-29T03:33:06;9.18;;;3.92;;
38053;SDS011;23859;50.672;7.164;2023-05-29T03:35:32;8.55;;;3.97;;
38053;SDS011;23859;50.672;7.164;2023-05-29T03:37:58;11.02;;;4.57;;
38053;SDS011;23859;50.672;7.164;2023-05-29T03:40:24;8.82;;;4.70;;
38053;SDS011;23859;50.672;7.164;2023-05-29T03:42:50;9.93;;;4.93;;
38053;SDS011;23859;50.672;7.164;2023-05-29T03:45:16;8.55;;;4.15;;
38053;SDS011;23859;50.672;7.164;2023-05-29T03:47:43;9.05;;;5.05;;
38053;SDS011;23859;50.672;7.164;2023-05-29T03:50:09;10.35;;;4.78;;
38053;SDS011;23859;50.672;7.164;2023-05-29T03:52:36;8.35;;;4.40;;
38053;SDS011;23859;50.672;7.164;2023-05-29T03:55:02;9.70;;;4.50;;
38053;SDS011;23859;50.672;7.164;2023-05-29T03:57:28;13.75;;;4.32;;
38053;SDS011;23859;50.672;7.164;2023-05-29T03:59:54;7.10;;;3.92;;
38053;SDS011;23859;50.672;7.164;2023-05-29T04:02:20;7.75;;;4.00;;
38053;SDS011;23859;50.672;7.164;2023-05-29T04:04:46;8.77;;;3.92;;
38053;SDS011;23859;50.672;7.164;2023-05-29T04:07:13;4.78;;;3.55;;
38053;SDS011;23859;50.672;7.164;2023-05-29T04:09:42;10.52;;;4.20;;
38053;SDS011;23859;50.672;7.164;2023-05-29T04:12:08;10.00;;;4.63;;
38053;SDS011;23859;50.672;7.164;2023-05-29T04:14:34;8.55;;;3.80;;
38053;SDS011;23859;50.672;7.164;2023-05-29T04:17:00;8.35;;;4.20;;
38053;SDS011;23859;50.672;7.164;2023-05-29T04:19:26;9.80;;;4.15;;
38053;SDS011;23859;50.672;7.164;2023-05-29T04:21:52;9.90;;;4.38;;
38053;SDS011;23859;50.672;7.164;2023-05-29T04:24:18;7.55;;;3.70;;
38053;SDS011;23859;50.672;7.164;2023-05-29T04:26:45;8.65;;;4.05;;
38053;SDS011;23859;50.672;7.164;2023-05-29T04:29:11;10.55;;;4.97;;
38053;SDS011;23859;50.672;7.164;2023-05-29T04:31:38;7.20;;;4.00;;
38053;SDS011;23859;50.672;7.164;2023-05-29T04:34:05;8.82;;;4.18;;
38053;SDS011;23859;50.672;7.164;2023-05-29T04:36:31;10.40;;;3.90;;
38053;SDS011;23859;50.672;7.164;2023-05-29T04:38:57;13.10;;;5.20;;
38053;SDS011;23859;50.672;7.164;2023-05-29T04:41:24;9.88;;;4.00;;
38053;SDS011;23859;50.672;7.164;2023-05-29T04:43:54;8.35;;;4.25;;
38053;SDS011;23859;50.672;7.164;2023-05-29T04:46:21;8.18;;;4.85;;
38053;SDS011;23859;50.672;7.164;2023-05-29T04:48:49;10.13;;;4.32;;
38053;SDS011;23859;50.672;7.164;2023-05-29T04:51:20;7.90;;;4.20;;
38053;SDS011;23859;50.672;7.164;2023-05-29T04:53:47;9.20;;;4.88;;
38053;SDS011;23859;50.672;7.164;2023-05-29T04:56:14;10.85;;;4.78;;
38053;SDS011;23859;50.672;7.164;2023-05-29T04:58:41;13.10;;;4.53;;
38053;SDS011;23859;50.672;7.164;2023-05-29T05:01:07;10.90;;;5.00;;
38053;SDS011;23859;50.672;7.164;2023-05-29T05:03:34;11.10;;;4.70;;
38053;SDS011;23859;50.672;7.164;2023-05-29T05:06:00;9.38;;;4.53;;
38053;SDS011;23859;50.672;7.164;2023-05-29T05:08:28;9.98;;;4.38;;
38053;SDS011;23859;50.672;7.164;2023-05-29T05:10:54;14.32;;;4.75;;
38053;SDS011;23859;50.672;7.164;2023-05-29T05:13:21;6.78;;;4.07;;
38053;SDS011;23859;50.672;7.164;2023-05-29T05:15:47;13.80;;;4.70;;
38053;SDS011;23859;50.672;7.164;2023-05-29T05:18:14;8.15;;;3.78;;
38053;SDS011;23859;50.672;7.164;2023-05-29T05:20:40;8.43;;;3.95;;
38053;SDS011;23859;50.672;7.164;2023-05-29T05:23:06;10.70;;;4.65;;
38053;SDS011;23859;50.672;7.164;2023-05-29T05:25:32;8.07;;;3.97;;
38053;SDS011;23859;50.672;7.164;2023-05-29T05:28:00;14.05;;;4.55;;
38053;SDS011;23859;50.672;7.164;2023-05-29T05:30:28;11.20;;;5.38;;
38053;SDS011;23859;50.672;7.164;2023-05-29T05:32:54;13.98;;;4.32;;
38053;SDS011;23859;50.672;7.164;2023-05-29T05:35:20;13.15;;;5.13;;
38053;SDS011;23859;50.672;7.164;2023-05-29T05:37:47;10.23;;;4.53;;
38053;SDS011;23859;50.672;7.164;2023-05-29T05:40:13;8.57;;;4.30;;
38053;SDS011;23859;50.672;7.164;2023-05-29T05:42:39;12.05;;;5.20;;
38053;SDS011;23859;50.672;7.164;2023-05-29T05:45:05;8.40;;;4.53;;
38053;SDS011;23859;50.672;7.164;2023-05-29T05:47:34;16.63;;;5.35;;
38053;SDS011;23859;50.672;7.164;2023-05-29T05:50:00;9.90;;;4.53;;
38053;SDS011;23859;50.672;7.164;2023-05-29T05:52:26;14.27;;;5.40;;
38053;SDS011;23859;50.672;7.164;2023-05-29T05:54:56;9.93;;;4.50;;
38053;SDS011;23859;50.672;7.164;2023-05-29T05:57:22;10.63;;;5.05;;
38053;SDS011;23859;50.672;7.164;2023-05-29T05:59:48;10.48;;;4.50;;
38053;SDS011;23859;50.672;7.164;2023-05-29T06:02:14;14.00;;;4.97;;
38053;SDS011;23859;50.672;7.164;2023-05-29T06:04:40;11.68;;;4.72;;
38053;SDS011;23859;50.672;7.164;2023-05-29T06:07:06;14.40;;;5.15;;
38053;SDS011;23859;50.672;7.164;2023-05-29T06:09:33;10.95;;;4.15;;
38053;SDS011;23859;50.672;7.164;2023-05-29T06:11:59;11.63;;;4.97;;
38053;SDS011;23859;50.672;7.164;2023-05-29T06:14:25;11.98;;;5.50;;
38053;SDS011;23859;50.672;7.164;2023-05-29T06:16:51;10.88;;;4.93;;
38053;SDS011;23859;50.672;7.164;2023-05-29T06:19:18;10.27;;;4.65;;
38053;SDS011;23859;50.672;7.164;2023-05-29T06:21:44;13.00;;;5.20;;
38053;SDS011;23859;50.672;7.164;2023-05-29T06:24:10;13.40;;;5.22;;
38053;SDS011;23859;50.672;7.164;2023-05-29T06:26:37;9.88;;;4.75;;
38053;SDS011;23859;50.672;7.164;2023-05-29T06:29:04;10.15;;;5.13;;
38053;SDS011;23859;50.672;7.164;2023-05-29T06:31:31;14.25;;;5.60;;
38053;SDS011;23859;50.672;7.164;2023-05-29T06:33:58;16.80;;;5.90;;
38053;SDS011;23859;50.672;7.164;2023-05-29T06:36:24;15.25;;;5.10;;
38053;SDS011;23859;50.672;7.164;2023-05-29T06:38:50;11.00;;;5.00;;
38053;SDS011;23859;50.672;7.164;2023-05-29T06:41:17;9.32;;;4.75;;
38053;SDS011;23859;50.672;7.164;2023-05-29T06:43:43;12.05;;;5.03;;
38053;SDS011;23859;50.672;7.164;2023-05-29T06:46:09;19.23;;;5.72;;
38053;SDS011;23859;50.672;7.164;2023-05-29T06:48:35;15.50;;;5.28;;
38053;SDS011;23859;50.672;7.164;2023-05-29T06:51:02;10.95;;;5.50;;
38053;SDS011;23859;50.672;7.164;2023-05-29T06:53:34;13.75;;;5.07;;
38053;SDS011;23859;50.672;7.164;2023-05-29T06:56:01;13.65;;;5.00;;
38053;SDS011;23859;50.672;7.164;2023-05-29T06:58:27;10.60;;;5.40;;
38053;SDS011;23859;50.672;7.164;2023-05-29T07:00:54;10.77;;;5.35;;
38053;SDS011;23859;50.672;7.164;2023-05-29T07:03:20;12.55;;;4.85;;
38053;SDS011;23859;50.672;7.164;2023-05-29T07:05:46;8.90;;;4.57;;
38053;SDS011;23859;50.672;7.164;2023-05-29T07:08:12;12.48;;;5.88;;
38053;SDS011;23859;50.672;7.164;2023-05-29T07:10:38;10.77;;;5.03;;
38053;SDS011;23859;50.672;7.164;2023-05-29T07:13:04;11.70;;;4.75;;
38053;SDS011;23859;50.672;7.164;2023-05-29T07:15:33;7.60;;;4.18;;
38053;SDS011;23859;50.672;7.164;2023-05-29T07:18:00;11.15;;;5.10;;
38053;SDS011;23859;50.672;7.164;2023-05-29T07:20:26;10.68;;;4.57;;
38053;SDS011;23859;50.672;7.164;2023-05-29T07:22:52;11.90;;;4.50;;
38053;SDS011;23859;50.672;7.164;2023-05-29T07:25:18;11.35;;;4.25;;
38053;SDS011;23859;50.672;7.164;2023-05-29T07:27:44;9.63;;;4.30;;
38053;SDS011;23859;50.672;7.164;2023-05-29T07:30:10;9.25;;;4.03;;
38053;SDS011;23859;50.672;7.164;2023-05-29T07:32:36;11.98;;;4.45;;
38053;SDS011;23859;50.672;7.164;2023-05-29T07:35:02;10.50;;;4.03;;
38053;SDS011;23859;50.672;7.164;2023-05-29T07:37:29;7.93;;;3.70;;
38053;SDS011;23859;50.672;7.164;2023-05-29T07:39:56;10.10;;;4.95;;
38053;SDS011;23859;50.672;7.164;2023-05-29T07:42:22;13.27;;;4.78;;
38053;SDS011;23859;50.672;7.164;2023-05-29T07:44:48;10.57;;;4.07;;
38053;SDS011;23859;50.672;7.164;2023-05-29T07:47:14;8.82;;;4.60;;
38053;SDS011;23859;50.672;7.164;2023-05-29T07:49:40;10.15;;;4.32;;
38053;SDS011;23859;50.672;7.164;2023-05-29T07:52:07;9.95;;;4.40;;
38053;SDS011;23859;50.672;7.164;2023-05-29T07:54:33;12.57;;;4.28;;
38053;SDS011;23859;50.672;7.164;2023-05-29T07:56:59;10.50;;;4.80;;
38053;SDS011;23859;50.672;7.164;2023-05-29T07:59:27;9.05;;;4.05;;
38053;SDS011;23859;50.672;7.164;2023-05-29T08:01:54;11.93;;;4.53;;
38053;SDS011;23859;50.672;7.164;2023-05-29T08:04:23;8.32;;;4.18;;
38053;SDS011;23859;50.672;7.164;2023-05-29T08:06:50;13.23;;;4.30;;
38053;SDS011;23859;50.672;7.164;2023-05-29T08:09:16;10.23;;;4.85;;
38053;SDS011;23859;50.672;7.164;2023-05-29T08:11:42;11.13;;;4.97;;
38053;SDS011;23859;50.672;7.164;2023-05-29T08:14:10;11.98;;;4.47;;
38053;SDS011;23859;50.672;7.164;2023-05-29T08:16:37;13.30;;;5.20;;
38053;SDS011;23859;50.672;7.164;2023-05-29T08:19:03;13.27;;;4.97;;
38053;SDS011;23859;50.672;7.164;2023-05-29T08:21:30;10.18;;;5.28;;
38053;SDS011;23859;50.672;7.164;2023-05-29T08:23:59;13.23;;;5.80;;
38053;SDS011;23859;50.672;7.164;2023-05-29T08:26:26;10.85;;;4.25;;
38053;SDS011;23859;50.672;7.164;2023-05-29T08:28:53;8.55;;;4.40;;
38053;SDS011;23859;50.672;7.164;2023-05-29T08:31:19;16.33;;;4.28;;
38053;SDS011;23859;50.672;7.164;2023-05-29T08:33:46;11.07;;;4.35;;
38053;SDS011;23859;50.672;7.164;2023-05-29T08:36:12;10.50;;;4.40;;
38053;SDS011;23859;50.672;7.164;2023-05-29T08:38:38;13.25;;;4.55;;
38053;SDS011;23859;50.672;7.164;2023-05-29T08:41:04;9.98;;;4.25;;
38053;SDS011;23859;50.672;7.164;2023-05-29T08:43:32;9.50;;;4.43;;
38053;SDS011;23859;50.672;7.164;2023-05-29T08:46:00;10.90;;;4.53;;
38053;SDS011;23859;50.672;7.164;2023-05-29T08:48:27;13.70;;;5.10;;
38053;SDS011;23859;50.672;7.164;2023-05-29T08:50:55;12.60;;;5.00;;
38053;SDS011;23859;50.672;7.164;2023-05-29T08:53:23;12.32;;;5.05;;
38053;SDS011;23859;50.672;7.164;2023-05-29T08:55:50;9.82;;;4.75;;
38053;SDS011;23859;50.672;7.164;2023-05-29T08:58:18;12.50;;;5.97;;
38053;SDS011;23859;50.672;7.164;2023-05-29T09:00:48;14.65;;;4.78;;
38053;SDS011;23859;50.672;7.164;2023-05-29T09:03:15;12.32;;;5.07;;
38053;SDS011;23859;50.672;7.164;2023-05-29T09:05:42;10.38;;;4.30;;
38053;SDS011;23859;50.672;7.164;2023-05-29T09:08:09;16.02;;;6.03;;
38053;SDS011;23859;50.672;7.164;2023-05-29T09:10:42;9.10;;;4.25;;
38053;SDS011;23859;50.672;7.164;2023-05-29T09:13:10;16.40;;;5.50;;
38053;SDS011;23859;50.672;7.164;2023-05-29T09:15:36;8.73;;;5.07;;
38053;SDS011;23859;50.672;7.164;2023-05-29T09:18:07;8.60;;;4.20;;
38053;SDS011;23859;50.672;7.164;2023-05-29T09:20:34;11.10;;;4.68;;
38053;SDS011;23859;50.672;7.164;2023-05-29T09:23:01;11.52;;;4.45;;
38053;SDS011;23859;50.672;7.164;2023-05-29T09:25:31;12.55;;;4.72;;
38053;SDS011;23859;50.672;7.164;2023-05-29T09:28:02;11.75;;;4.50;;
38053;SDS011;23859;50.672;7.164;2023-05-29T09:33:08;13.70;;;4.60;;
38053;SDS011;23859;50.672;7.164;2023-05-29T09:35:37;9.05;;;4.45;;
38053;SDS011;23859;50.672;7.164;2023-05-29T09:38:05;14.45;;;4.20;;
38053;SDS011;23859;50.672;7.164;2023-05-29T09:40:32;13.13;;;4.18;;
38053;SDS011;23859;50.672;7.164;2023-05-29T09:43:01;12.20;;;5.03;;
38053;SDS011;23859;50.672;7.164;2023-05-29T09:45:32;10.68;;;4.15;;
38053;SDS011;23859;50.672;7.164;2023-05-29T09:48:01;10.75;;;3.75;;
38053;SDS011;23859;50.672;7.164;2023-05-29T09:50:27;10.90;;;3.85;;
38053;SDS011;23859;50.672;7.164;2023-05-29T09:52:55;10.63;;;4.50;;
38053;SDS011;23859;50.672;7.164;2023-05-29T09:55:23;6.63;;;3.55;;
38053;SDS011;23859;50.672;7.164;2023-05-29T09:57:52;18.80;;;4.35;;
38053;SDS011;23859;50.672;7.164;2023-05-29T10:00:19;8.60;;;3.78;;
38053;SDS011;23859;50.672;7.164;2023-05-29T10:02:47;8.00;;;3.58;;
38053;SDS011;23859;50.672;7.164;2023-05-29T10:05:14;7.55;;;3.33;;
38053;SDS011;23859;50.672;7.164;2023-05-29T10:07:44;11.60;;;3.75;;
38053;SDS011;23859;50.672;7.164;2023-05-29T10:10:12;13.32;;;4.57;;
38053;SDS011;23859;50.672;7.164;2023-05-29T10:12:41;12.40;;;3.70;;
38053;SDS011;23859;50.672;7.164;2023-05-29T10:15:13;10.88;;;3.83;;
38053;SDS011;23859;50.672;7.164;2023-05-29T10:18:02;11.85;;;4.45;;
38053;SDS011;23859;50.672;7.164;2023-05-29T10:20:31;11.90;;;4.72;;
38053;SDS011;23859;50.672;7.164;2023-05-29T10:23:00;10.98;;;4.25;;
38053;SDS011;23859;50.672;7.164;2023-05-29T10:25:29;13.85;;;4.30;;
38053;SDS011;23859;50.672;7.164;2023-05-29T10:27:57;8.80;;;3.65;;
38053;SDS011;23859;50.672;7.164;2023-05-29T10:36:21;10.10;;;3.67;;
38053;SDS011;23859;50.672;7.164;2023-05-29T10:38:51;15.23;;;4.00;;
38053;SDS011;23859;50.672;7.164;2023-05-29T10:43:58;12.70;;;3.75;;
38053;SDS011;23859;50.672;7.164;2023-05-29T10:49:18;12.68;;;3.60;;
38053;SDS011;23859;50.672;7.164;2023-05-29T10:51:47;12.63;;;3.83;;
38053;SDS011;23859;50.672;7.164;2023-05-29T10:54:14;9.68;;;3.90;;
38053;SDS011;23859;50.672;7.164;2023-05-29T10:56:44;13.70;;;3.88;;
38053;SDS011;23859;50.672;7.164;2023-05-29T10:59:17;10.65;;;3.63;;
38053;SDS011;23859;50.672;7.164;2023-05-29T11:01:43;11.18;;;3.83;;
38053;SDS011;23859;50.672;7.164;2023-05-29T11:06:51;10.02;;;3.17;;
38053;SDS011;23859;50.672;7.164;2023-05-29T11:09:30;12.35;;;3.30;;
38053;SDS011;23859;50.672;7.164;2023-05-29T11:15:04;12.63;;;4.07;;
38053;SDS011;23859;50.672;7.164;2023-05-29T11:20:12;8.63;;;3.70;;
38053;SDS011;23859;50.672;7.164;2023-05-29T11:23:01;13.68;;;3.28;;
38053;SDS011;23859;50.672;7.164;2023-05-29T11:25:33;9.30;;;3.70;;
38053;SDS011;23859;50.672;7.164;2023-05-29T11:28:00;10.82;;;3.33;;
38053;SDS011;23859;50.672;7.164;2023-05-29T11:30:28;10.10;;;2.90;;
38053;SDS011;23859;50.672;7.164;2023-05-29T11:32:55;10.13;;;3.15;;
38053;SDS011;23859;50.672;7.164;2023-05-29T11:35:30;9.93;;;3.08;;
38053;SDS011;23859;50.672;7.164;2023-05-29T11:37:59;10.85;;;3.45;;
38053;SDS011;23859;50.672;7.164;2023-05-29T11:40:26;10.00;;;3.45;;
38053;SDS011;23859;50.672;7.164;2023-05-29T11:42:52;12.57;;;3.05;;
38053;SDS011;23859;50.672;7.164;2023-05-29T11:45:20;9.80;;;3.22;;
38053;SDS011;23859;50.672;7.164;2023-05-29T11:50:23;8.10;;;3.10;;
38053;SDS011;23859;50.672;7.164;2023-05-29T11:52:50;7.10;;;2.80;;
38053;SDS011;23859;50.672;7.164;2023-05-29T11:55:20;9.15;;;3.40;;
38053;SDS011;23859;50.672;7.164;2023-05-29T11:57:47;8.82;;;2.97;;
38053;SDS011;23859;50.672;7.164;2023-05-29T12:00:23;10.55;;;3.13;;
38053;SDS011;23859;50.672;7.164;2023-05-29T12:02:50;10.35;;;2.90;;
38053;SDS011;23859;50.672;7.164;2023-05-29T12:05:17;9.38;;;3.35;;
38053;SDS011;23859;50.672;7.164;2023-05-29T12:07:47;10.10;;;3.20;;
38053;SDS011;23859;50.672;7.164;2023-05-29T12:10:16;9.02;;;3.25;;
38053;SDS011;23859;50.672;7.164;2023-05-29T12:12:46;9.48;;;3.08;;
38053;SDS011;23859;50.672;7.164;2023-05-29T12:15:14;7.05;;;2.55;;
38053;SDS011;23859;50.672;7.164;2023-05-29T12:17:42;8.75;;;3.55;;
38053;SDS011;23859;50.672;7.164;2023-05-29T12:20:13;10.95;;;3.40;;
38053;SDS011;23859;50.672;7.164;2023-05-29T12:22:41;11.50;;;3.03;;
38053;SDS011;23859;50.672;7.164;2023-05-29T12:27:38;8.98;;;2.85;;
38053;SDS011;23859;50.672;7.164;2023-05-29T12:30:09;8.65;;;3.10;;
38053;SDS011;23859;50.672;7.164;2023-05-29T12:32:38;11.10;;;2.88;;
38053;SDS011;23859;50.672;7.164;2023-05-29T12:37:45;7.97;;;2.70;;
38053;SDS011;23859;50.672;7.164;2023-05-29T12:40:23;10.93;;;3.55;;
38053;SDS011;23859;50.672;7.164;2023-05-29T12:45:23;7.80;;;3.22;;
38053;SDS011;23859;50.672;7.164;2023-05-29T12:47:54;12.52;;;3.63;;
38053;SDS011;23859;50.672;7.164;2023-05-29T12:50:23;10.80;;;4.05;;
38053;SDS011;23859;50.672;7.164;2023-05-29T12:55:27;10.18;;;3.42;;
38053;SDS011;23859;50.672;7.164;2023-05-29T12:57:54;13.45;;;3.20;;
38053;SDS011;23859;50.672;7.164;2023-05-29T13:00:21;8.52;;;3.53;;
38053;SDS011;23859;50.672;7.164;2023-05-29T13:02:48;7.07;;;3.10;;
38053;SDS011;23859;50.672;7.164;2023-05-29T13:05:15;11.77;;;3.35;;
38053;SDS011;23859;50.672;7.164;2023-05-29T13:07:43;7.82;;;2.88;;
38053;SDS011;23859;50.672;7.164;2023-05-29T13:10:10;7.65;;;3.22;;
38053;SDS011;23859;50.672;7.164;2023-05-29T13:12:37;9.05;;;3.28;;
38053;SDS011;23859;50.672;7.164;2023-05-29T13:15:03;6.55;;;3.15;;
38053;SDS011;23859;50.672;7.164;2023-05-29T13:17:29;9.32;;;3.33;;
38053;SDS011;23859;50.672;7.164;2023-05-29T13:19:55;10.25;;;3.17;;
38053;SDS011;23859;50.672;7.164;2023-05-29T13:22:21;10.85;;;3.10;;
38053;SDS011;23859;50.672;7.164;2023-05-29T13:24:47;14.95;;;3.05;;
38053;SDS011;23859;50.672;7.164;2023-05-29T13:27:13;6.97;;;3.17;;
38053;SDS011;23859;50.672;7.164;2023-05-29T13:29:41;8.55;;;2.97;;
38053;SDS011;23859;50.672;7.164;2023-05-29T13:32:08;5.38;;;2.78;;
38053;SDS011;23859;50.672;7.164;2023-05-29T13:34:34;10.30;;;3.83;;
38053;SDS011;23859;50.672;7.164;2023-05-29T13:37:00;8.27;;;3.50;;
38053;SDS011;23859;50.672;7.164;2023-05-29T13:39:27;7.55;;;2.83;;
38053;SDS011;23859;50.672;7.164;2023-05-29T13:41:53;8.07;;;3.20;;
38053;SDS011;23859;50.672;7.164;2023-05-29T13:44:19;6.70;;;3.05;;
38053;SDS011;23859;50.672;7.164;2023-05-29T13:46:46;9.23;;;3.15;;
38053;SDS011;23859;50.672;7.164;2023-05-29T13:49:12;8.90;;;3.10;;
38053;SDS011;23859;50.672;7.164;2023-05-29T13:51:38;7.00;;;2.92;;
38053;SDS011;23859;50.672;7.164;2023-05-29T13:54:04;10.18;;;3.05;;
38053;SDS011;23859;50.672;7.164;2023-05-29T13:56:30;7.40;;;3.05;;
38053;SDS011;23859;50.672;7.164;2023-05-29T13:58:56;8.23;;;3.00;;
38053;SDS011;23859;50.672;7.164;2023-05-29T14:01:28;8.23;;;3.08;;
38053;SDS011;23859;50.672;7.164;2023-05-29T14:03:55;13.52;;;3.63;;
38053;SDS011;23859;50.672;7.164;2023-05-29T14:06:21;10.50;;;2.95;;
38053;SDS011;23859;50.672;7.164;2023-05-29T14:08:47;8.82;;;3.35;;
38053;SDS011;23859;50.672;7.164;2023-05-29T14:11:13;11.80;;;3.28;;
38053;SDS011;23859;50.672;7.164;2023-05-29T14:13:40;6.75;;;3.03;;
38053;SDS011;23859;50.672;7.164;2023-05-29T14:16:06;5.18;;;3.15;;
38053;SDS011;23859;50.672;7.164;2023-05-29T14:18:32;7.78;;;2.67;;
38053;SDS011;23859;50.672;7.164;2023-05-29T14:20:58;14.75;;;3.65;;
38053;SDS011;23859;50.672;7.164;2023-05-29T14:23:24;8.32;;;3.17;;
38053;SDS011;23859;50.672;7.164;2023-05-29T14:25:50;9.48;;;2.95;;
38053;SDS011;23859;50.672;7.164;2023-05-29T14:28:16;8.40;;;2.67;;
38053;SDS011;23859;50.672;7.164;2023-05-29T14:30:43;10.68;;;3.00;;
38053;SDS011;23859;50.672;7.164;2023-05-29T14:33:09;7.78;;;2.90;;
38053;SDS011;23859;50.672;7.164;2023-05-29T14:35:35;9.88;;;3.22;;
38053;SDS011;23859;50.672;7.164;2023-05-29T14:38:01;10.73;;;3.65;;
38053;SDS011;23859;50.672;7.164;2023-05-29T14:40:27;9.23;;;3.33;;
38053;SDS011;23859;50.672;7.164;2023-05-29T14:42:53;12.23;;;2.90;;
38053;SDS011;23859;50.672;7.164;2023-05-29T14:45:19;7.25;;;2.88;;
38053;SDS011;23859;50.672;7.164;2023-05-29T14:47:45;12.70;;;3.33;;
38053;SDS011;23859;50.672;7.164;2023-05-29T14:50:11;10.65;;;4.22;;
38053;SDS011;23859;50.672;7.164;2023-05-29T14:52:37;7.65;;;2.85;;
38053;SDS011;23859;50.672;7.164;2023-05-29T14:55:04;8.43;;;2.90;;
38053;SDS011;23859;50.672;7.164;2023-05-29T14:57:30;9.23;;;2.83;;
38053;SDS011;23859;50.672;7.164;2023-05-29T14:59:58;9.88;;;3.13;;
38053;SDS011;23859;50.672;7.164;2023-05-29T15:02:25;9.82;;;2.55;;
38053;SDS011;23859;50.672;7.164;2023-05-29T15:04:51;6.28;;;3.38;;
38053;SDS011;23859;50.672;7.164;2023-05-29T15:07:17;8.02;;;2.65;;
38053;SDS011;23859;50.672;7.164;2023-05-29T15:09:43;9.25;;;2.78;;
38053;SDS011;23859;50.672;7.164;2023-05-29T15:12:09;9.70;;;2.92;;
38053;SDS011;23859;50.672;7.164;2023-05-29T15:14:36;8.23;;;3.00;;
38053;SDS011;23859;50.672;7.164;2023-05-29T15:17:02;8.80;;;3.10;;
38053;SDS011;23859;50.672;7.164;2023-05-29T15:19:29;10.82;;;3.78;;
38053;SDS011;23859;50.672;7.164;2023-05-29T15:21:55;9.95;;;2.50;;
38053;SDS011;23859;50.672;7.164;2023-05-29T15:24:22;11.02;;;3.13;;
38053;SDS011;23859;50.672;7.164;2023-05-29T15:26:48;6.25;;;3.05;;